createdAt,value
2023-02-12T00:02:02.641Z,28.00
2023-02-12T00:04:29.088Z,22.47
2023-02-12T00:06:55.539Z,24.57
2023-02-12T00:09:22.073Z,25.27
2023-02-12T00:11:48.557Z,25.80
2023-02-12T00:14:15.022Z,27.87
2023-02-12T00:16:41.417Z,25.93
2023-02-12T00:19:07.851Z,24.50
2023-02-12T00:21:36.044Z,24.97
2023-02-12T00:24:02.716Z,22.30
2023-02-12T00:26:29.458Z,23.33
2023-02-12T00:28:56.255Z,23.50
2023-02-12T00:31:29.237Z,26.03
2023-02-12T00:33:59.551Z,25.33
2023-02-12T00:36:28.805Z,24.17
2023-02-12T00:38:56.297Z,24.57
2023-02-12T00:41:24.882Z,29.10
2023-02-12T00:43:52.409Z,27.37
2023-02-12T00:46:19.584Z,24.77
2023-02-12T00:48:46.082Z,24.80
2023-02-12T00:51:12.914Z,23.10
2023-02-12T00:53:39.621Z,24.23
2023-02-12T00:56:07.335Z,21.17
2023-02-12T00:58:33.782Z,21.83
2023-02-12T01:01:00.326Z,22.77
2023-02-12T01:03:26.759Z,22.27
2023-02-12T01:05:54.138Z,21.63
2023-02-12T01:08:21.399Z,22.00
2023-02-12T01:10:55.017Z,20.97
2023-02-12T01:13:21.648Z,21.07
2023-02-12T01:15:48.188Z,23.97
2023-02-12T01:18:16.217Z,21.83
2023-02-12T01:20:43.382Z,22.27
2023-02-12T01:23:09.854Z,21.77
2023-02-12T01:25:38.702Z,22.33
2023-02-12T01:28:05.229Z,20.50
2023-02-12T01:30:31.668Z,24.00
2023-02-12T01:32:58.244Z,22.67
2023-02-12T01:35:24.735Z,20.90
2023-02-12T01:37:51.117Z,21.37
2023-02-12T01:40:18.228Z,22.07
2023-02-12T01:42:45.936Z,24.53
2023-02-12T01:45:12.356Z,22.43
2023-02-12T01:47:44.295Z,25.63
2023-02-12T01:50:15.319Z,24.77
2023-02-12T01:52:48.248Z,27.10
2023-02-12T01:55:15.725Z,21.93
2023-02-12T01:57:45.682Z,20.90
2023-02-12T02:00:16.170Z,23.23
2023-02-12T02:02:51.314Z,22.83
2023-02-12T02:05:27.005Z,23.60
2023-02-12T02:07:54.086Z,21.20
2023-02-12T02:10:20.556Z,21.57
2023-02-12T02:13:05.856Z,21.87
2023-02-12T02:15:33.136Z,20.57
2023-02-12T02:18:30.085Z,20.37
2023-02-12T02:21:11.712Z,19.67
2023-02-12T02:23:55.556Z,23.10
2023-02-12T02:26:54.809Z,19.80
2023-02-12T02:29:56.987Z,20.83
2023-02-12T02:32:27.019Z,21.47
2023-02-12T02:35:01.131Z,21.17
2023-02-12T02:37:36.037Z,19.37
2023-02-12T02:40:19.392Z,23.83
2023-02-12T02:43:00.489Z,22.23
2023-02-12T02:45:52.384Z,25.43
2023-02-12T02:48:25.019Z,25.10
2023-02-12T02:51:04.606Z,24.93
2023-02-12T02:53:39.701Z,22.50
2023-02-12T02:56:11.588Z,25.90
2023-02-12T02:59:10.810Z,22.73
2023-02-12T03:01:45.023Z,26.40
2023-02-12T03:04:42.435Z,25.77
2023-02-12T03:07:13.616Z,25.60
2023-02-12T03:09:44.861Z,28.83
2023-02-12T03:12:24.427Z,27.33
2023-02-12T03:14:58.444Z,25.97
2023-02-12T03:17:30.392Z,24.23
2023-02-12T03:20:14.241Z,23.53
2023-02-12T03:22:48.125Z,23.23
2023-02-12T03:25:18.018Z,24.67
2023-02-12T03:27:51.673Z,24.33
2023-02-12T03:30:18.575Z,22.13
2023-02-12T03:33:13.604Z,24.20
2023-02-12T03:36:03.356Z,22.43
2023-02-12T03:38:36.846Z,22.47
2023-02-12T03:41:11.393Z,23.07
2023-02-12T03:43:41.170Z,21.33
2023-02-12T03:46:20.692Z,25.67
2023-02-12T03:48:59.560Z,20.87
2023-02-12T03:51:25.936Z,24.13
2023-02-12T03:53:52.741Z,22.77
2023-02-12T03:56:25.383Z,25.30
2023-02-12T03:58:52.691Z,25.10
2023-02-12T04:01:19.298Z,22.90
2023-02-12T04:03:46.681Z,22.10
2023-02-12T04:06:26.093Z,20.33
2023-02-12T04:08:55.106Z,15.53
2023-02-12T04:11:40.689Z,16.50
2023-02-12T04:14:15.167Z,16.60
2023-02-12T04:16:51.016Z,15.60
2023-02-12T04:19:44.642Z,21.00
2023-02-12T04:22:26.797Z,17.40
2023-02-12T04:25:10.600Z,19.77
2023-02-12T04:27:49.236Z,17.17
2023-02-12T04:30:42.939Z,17.33
2023-02-12T04:33:13.073Z,21.90
2023-02-12T04:35:54.747Z,22.90
2023-02-12T04:38:26.714Z,24.30
2023-02-12T04:40:53.539Z,18.80
2023-02-12T04:43:46.189Z,20.37
2023-02-12T04:46:12.677Z,22.67
2023-02-12T04:48:51.691Z,18.17
2023-02-12T04:51:18.221Z,20.53
2023-02-12T04:53:44.635Z,20.73
2023-02-12T04:56:13.665Z,20.00
2023-02-12T04:58:41.110Z,19.13
2023-02-12T05:01:09.259Z,21.33
2023-02-12T05:03:36.701Z,20.17
2023-02-12T05:06:05.506Z,22.50
2023-02-12T05:08:32.299Z,20.87
2023-02-12T05:11:05.003Z,20.93
2023-02-12T05:13:31.776Z,19.70
2023-02-12T05:15:58.489Z,22.10
2023-02-12T05:18:25.591Z,21.70
2023-02-12T05:20:59.988Z,21.83
2023-02-12T05:23:28.209Z,21.90
2023-02-12T05:25:55.187Z,22.90
2023-02-12T05:28:21.812Z,22.70
2023-02-12T05:30:48.498Z,27.00
2023-02-12T05:33:15.069Z,28.70
2023-02-12T05:35:41.819Z,23.87
2023-02-12T05:38:08.209Z,26.17
2023-02-12T05:40:35.589Z,24.50
2023-02-12T05:43:02.394Z,23.00
2023-02-12T05:45:29.299Z,22.60
2023-02-12T05:47:56.926Z,21.83
2023-02-12T05:50:23.502Z,23.87
2023-02-12T05:53:02.695Z,19.30
2023-02-12T05:55:29.137Z,23.33
2023-02-12T05:57:55.635Z,22.87
2023-02-12T06:00:22.710Z,23.53
2023-02-12T06:02:49.210Z,23.83
2023-02-12T06:05:15.715Z,26.67
2023-02-12T06:07:43.717Z,21.80
2023-02-12T06:10:10.515Z,23.40
2023-02-12T06:12:37.010Z,27.57
2023-02-12T06:15:03.741Z,25.37
2023-02-12T06:17:30.153Z,19.00
2023-02-12T06:19:56.558Z,17.43
2023-02-12T06:22:23.078Z,20.13
2023-02-12T06:24:49.462Z,22.20
2023-02-12T06:27:16.005Z,19.03
2023-02-12T06:29:43.418Z,16.80
2023-02-12T06:32:13.447Z,17.83
2023-02-12T06:34:41.700Z,16.83
2023-02-12T06:37:08.445Z,18.90
2023-02-12T06:39:34.958Z,20.23
2023-02-12T06:42:01.401Z,20.93
2023-02-12T06:44:27.923Z,20.57
2023-02-12T06:46:54.513Z,21.33
2023-02-12T06:49:21.018Z,20.03
2023-02-12T06:51:47.731Z,22.33
2023-02-12T06:54:15.620Z,23.07
2023-02-12T06:56:42.220Z,19.23
2023-02-12T06:59:14.306Z,20.70
2023-02-12T07:01:41.130Z,23.57
2023-02-12T07:04:07.739Z,21.90
2023-02-12T07:06:35.828Z,22.23
2023-02-12T07:09:04.483Z,21.83
2023-02-12T07:11:36.181Z,20.67
2023-02-12T07:14:05.654Z,17.70
2023-02-12T07:16:32.172Z,23.10
2023-02-12T07:18:58.768Z,19.73
2023-02-12T07:21:25.722Z,22.10
2023-02-12T07:23:53.048Z,23.87
2023-02-12T07:26:21.395Z,24.10
2023-02-12T07:28:48.700Z,21.37
2023-02-12T07:31:18.401Z,21.77
2023-02-12T07:33:45.617Z,23.20
2023-02-12T07:36:15.140Z,25.73
2023-02-12T07:38:42.420Z,21.80
2023-02-12T07:41:17.643Z,21.40
2023-02-12T07:43:45.782Z,21.23
2023-02-12T07:46:16.671Z,23.23
2023-02-12T07:48:44.100Z,21.33
2023-02-12T07:51:13.021Z,21.77
2023-02-12T07:53:39.578Z,20.63
2023-02-12T07:56:11.640Z,20.90
2023-02-12T07:58:39.400Z,23.77
2023-02-12T08:01:19.055Z,20.63
2023-02-12T08:03:47.248Z,20.90
2023-02-12T08:06:17.175Z,22.93
2023-02-12T08:08:43.968Z,21.57
2023-02-12T08:11:12.126Z,24.07
2023-02-12T08:13:39.249Z,22.60
2023-02-12T08:16:09.957Z,19.07
2023-02-12T08:18:36.548Z,21.17
2023-02-12T08:21:11.062Z,22.47
2023-02-12T08:23:38.335Z,25.50
2023-02-12T08:26:13.321Z,26.00
2023-02-12T08:28:42.847Z,24.13
2023-02-12T08:31:13.367Z,22.70
2023-02-12T08:33:39.832Z,26.37
2023-02-12T08:36:07.671Z,24.57
2023-02-12T08:38:34.130Z,21.87
2023-02-12T08:41:05.844Z,24.77
2023-02-12T08:43:32.995Z,27.47
2023-02-12T08:46:26.948Z,24.60
2023-02-12T08:48:58.578Z,24.30
2023-02-12T08:51:28.752Z,24.40
2023-02-12T08:53:57.808Z,30.97
2023-02-12T08:56:25.351Z,29.00
2023-02-12T08:58:52.669Z,29.83
2023-02-12T09:01:24.325Z,26.50
2023-02-12T09:03:51.864Z,39.93
2023-02-12T09:06:21.659Z,35.53
2023-02-12T09:08:48.585Z,48.10
2023-02-12T09:11:18.254Z,52.37
2023-02-12T09:13:46.698Z,52.50
2023-02-12T09:16:14.255Z,51.83
2023-02-12T09:18:41.062Z,49.00
2023-02-12T09:21:10.154Z,53.33
2023-02-12T09:23:36.901Z,53.93
2023-02-12T09:26:08.329Z,58.17
2023-02-12T09:28:35.702Z,54.50
2023-02-12T09:31:10.038Z,60.40
2023-02-12T09:33:36.581Z,55.93
2023-02-12T09:36:04.707Z,59.23
2023-02-12T09:38:32.341Z,54.33
2023-02-12T09:41:17.174Z,56.73
2023-02-12T09:44:03.877Z,53.90
2023-02-12T09:46:48.012Z,54.23
2023-02-12T09:49:59.760Z,53.27
2023-02-12T09:52:29.063Z,57.37
2023-02-12T09:54:56.684Z,53.30
2023-02-12T09:57:36.332Z,54.30
2023-02-12T10:00:08.677Z,55.07
2023-02-12T10:02:40.347Z,52.90
2023-02-12T10:05:29.194Z,56.63
2023-02-12T10:08:14.962Z,52.70
2023-02-12T10:10:52.425Z,51.30
2023-02-12T10:13:35.039Z,49.97
2023-02-12T10:16:14.847Z,47.43
2023-02-12T10:18:53.630Z,44.53
2023-02-12T10:21:33.023Z,46.80
2023-02-12T10:24:19.420Z,44.20
2023-02-12T10:26:52.767Z,45.40
2023-02-12T10:29:23.254Z,42.67
2023-02-12T10:32:00.606Z,40.50
2023-02-12T10:34:33.785Z,42.87
2023-02-12T10:37:09.989Z,39.33
2023-02-12T10:39:41.309Z,39.00
2023-02-12T10:42:24.945Z,36.73
2023-02-12T10:44:51.427Z,35.33
2023-02-12T10:47:21.784Z,38.30
2023-02-12T10:49:57.764Z,41.77
2023-02-12T10:52:24.249Z,33.93
2023-02-12T10:54:50.627Z,33.93
2023-02-12T10:57:39.280Z,30.80
2023-02-12T11:00:30.726Z,28.13
2023-02-12T11:03:02.390Z,29.83
2023-02-12T11:05:31.045Z,29.83
2023-02-12T11:07:57.627Z,25.77
2023-02-12T11:10:41.785Z,29.27
2023-02-12T11:13:27.786Z,27.73
2023-02-12T11:15:55.518Z,24.80
2023-02-12T11:18:26.136Z,24.60
2023-02-12T11:20:57.668Z,24.13
2023-02-12T11:23:26.177Z,25.70
2023-02-12T11:26:05.386Z,24.53
2023-02-12T11:28:34.869Z,24.53
2023-02-12T11:31:26.254Z,23.23
2023-02-12T11:34:16.013Z,22.67
2023-02-12T11:36:52.167Z,20.17
2023-02-12T11:39:27.170Z,18.47
2023-02-12T11:41:56.973Z,21.00
2023-02-12T11:44:30.728Z,19.27
2023-02-12T11:47:08.740Z,17.13
2023-02-12T11:49:44.155Z,15.43
2023-02-12T11:52:34.017Z,16.17
2023-02-12T11:55:04.721Z,18.23
2023-02-12T11:57:44.800Z,16.47
2023-02-12T12:00:19.868Z,14.37
2023-02-12T12:03:06.786Z,15.20
2023-02-12T12:05:40.313Z,12.63
2023-02-12T12:08:16.874Z,14.47
2023-02-12T12:11:13.105Z,14.20
2023-02-12T12:13:54.714Z,13.73
2023-02-12T12:16:49.401Z,15.53
2023-02-12T12:19:52.319Z,14.23
2023-02-12T12:22:40.084Z,14.90
2023-02-12T12:25:15.479Z,13.40
2023-02-12T12:28:05.527Z,11.63
2023-02-12T12:31:06.805Z,12.07
2023-02-12T12:34:03.855Z,12.20
2023-02-12T12:36:55.609Z,12.27
2023-02-12T12:39:35.735Z,12.83
2023-02-12T12:42:20.380Z,11.07
2023-02-12T12:45:06.526Z,11.40
2023-02-12T12:47:54.087Z,11.37
2023-02-12T12:50:34.787Z,12.43
2023-02-12T12:53:14.470Z,10.20
2023-02-12T12:55:43.801Z,8.93
2023-02-12T12:58:43.766Z,9.17
2023-02-12T13:01:31.592Z,10.27
2023-02-12T13:04:35.386Z,12.93
2023-02-12T13:07:04.597Z,12.13
2023-02-12T13:10:01.738Z,10.80
2023-02-12T13:12:53.934Z,13.17
2023-02-12T13:15:49.412Z,10.57
2023-02-12T13:18:27.841Z,12.40
2023-02-12T13:20:58.746Z,11.83
2023-02-12T13:23:49.403Z,13.90
2023-02-12T13:26:25.818Z,11.97
2023-02-12T13:29:01.641Z,12.63
2023-02-12T13:31:33.865Z,12.97
2023-02-12T13:34:07.889Z,11.17
2023-02-12T13:36:36.568Z,10.43
2023-02-12T13:39:18.809Z,12.37
2023-02-12T13:41:54.079Z,13.10
2023-02-12T13:44:32.671Z,11.17
2023-02-12T13:47:08.745Z,11.13
2023-02-12T13:49:44.326Z,11.77
2023-02-12T13:52:34.073Z,14.77
2023-02-12T13:55:14.541Z,11.77
2023-02-12T13:57:41.277Z,14.20
2023-02-12T14:00:59.850Z,14.67
2023-02-12T14:03:29.823Z,13.50
2023-02-12T14:06:16.195Z,14.47
2023-02-12T14:08:50.310Z,14.07
2023-02-12T14:11:21.169Z,13.93
2023-02-12T14:14:23.184Z,12.30
2023-02-12T14:16:49.771Z,12.97
2023-02-12T14:19:50.194Z,13.63
2023-02-12T14:22:28.784Z,12.03
2023-02-12T14:24:57.084Z,13.67
2023-02-12T14:27:30.741Z,15.00
2023-02-12T14:30:31.603Z,15.97
2023-02-12T14:33:10.513Z,14.37
2023-02-12T14:35:40.901Z,14.37
2023-02-12T14:38:45.802Z,14.63
2023-02-12T14:41:37.759Z,15.50
2023-02-12T14:44:30.414Z,16.50
2023-02-12T14:46:59.799Z,16.23
2023-02-12T14:49:36.712Z,15.77
2023-02-12T14:52:14.659Z,15.63
2023-02-12T14:54:51.064Z,16.83
2023-02-12T14:57:32.845Z,15.40
2023-02-12T15:00:17.701Z,14.70
2023-02-12T15:02:49.626Z,15.30
2023-02-12T15:05:23.537Z,13.93
2023-02-12T15:07:59.094Z,14.93
2023-02-12T15:10:32.398Z,14.03
2023-02-12T15:13:14.054Z,14.73
2023-02-12T15:15:50.731Z,16.43
2023-02-12T15:18:44.636Z,14.50
2023-02-12T15:21:22.889Z,15.37
2023-02-12T15:24:11.457Z,13.83
2023-02-12T15:26:42.558Z,13.37
2023-02-12T15:29:25.257Z,12.53
2023-02-12T15:31:57.958Z,15.23
2023-02-12T15:34:27.910Z,12.13
2023-02-12T15:36:58.467Z,12.27
2023-02-12T15:39:26.286Z,15.23
2023-02-12T15:41:52.909Z,13.30
2023-02-12T15:44:22.317Z,13.60
2023-02-12T15:47:08.798Z,12.17
2023-02-12T15:49:37.478Z,11.40
2023-02-12T15:52:10.075Z,14.10
2023-02-12T15:54:37.919Z,12.73
2023-02-12T15:57:11.222Z,14.00
2023-02-12T15:59:37.815Z,14.33
2023-02-12T16:02:04.478Z,16.83
2023-02-12T16:04:34.137Z,18.87
2023-02-12T16:07:01.772Z,17.67
2023-02-12T16:09:31.949Z,19.90
2023-02-12T16:12:11.212Z,19.00
2023-02-12T16:14:44.731Z,20.73
2023-02-12T16:17:22.542Z,20.73
2023-02-12T16:20:09.364Z,21.80
2023-02-12T16:22:41.916Z,19.53
2023-02-12T16:25:21.988Z,21.67
2023-02-12T16:28:07.435Z,21.40
2023-02-12T16:30:45.042Z,21.13
2023-02-12T16:33:39.325Z,22.87
2023-02-12T16:36:14.080Z,24.80
2023-02-12T16:38:44.881Z,26.47
2023-02-12T16:41:20.485Z,26.70
2023-02-12T16:43:50.856Z,23.40
2023-02-12T16:46:20.423Z,22.30
2023-02-12T16:48:51.620Z,21.50
2023-02-12T16:51:31.554Z,23.67
2023-02-12T16:54:00.242Z,25.53
2023-02-12T16:56:29.260Z,28.47
2023-02-12T16:59:00.902Z,25.73
2023-02-12T17:01:30.948Z,25.17
2023-02-12T17:03:59.292Z,25.37
2023-02-12T17:06:28.714Z,24.93
2023-02-12T17:08:55.719Z,27.40
2023-02-12T17:11:24.004Z,27.17
2023-02-12T17:13:52.531Z,20.73
2023-02-12T17:16:30.374Z,20.87
2023-02-12T17:18:57.782Z,20.67
2023-02-12T17:21:26.879Z,21.37
2023-02-12T17:23:56.494Z,20.87
2023-02-12T17:26:24.641Z,22.47
2023-02-12T17:28:51.077Z,22.00
2023-02-12T17:31:17.759Z,24.67
2023-02-12T17:33:44.465Z,19.57
2023-02-12T17:36:12.212Z,21.77
2023-02-12T17:38:38.690Z,24.60
2023-02-12T17:41:11.155Z,21.30
2023-02-12T17:43:37.792Z,25.47
2023-02-12T17:46:17.115Z,23.20
2023-02-12T17:48:43.696Z,20.97
2023-02-12T17:51:11.646Z,23.73
2023-02-12T17:53:42.736Z,30.87
2023-02-12T17:56:17.350Z,31.37
2023-02-12T17:58:45.093Z,18.17
2023-02-12T18:01:16.733Z,17.10
2023-02-12T18:03:43.464Z,14.13
2023-02-12T18:06:13.948Z,17.07
2023-02-12T18:08:41.895Z,15.07
2023-02-12T18:11:12.219Z,147.10
2023-02-12T18:13:39.316Z,25.00
2023-02-12T18:16:07.679Z,19.87
2023-02-12T18:18:35.320Z,24.30
2023-02-12T18:21:06.120Z,23.00
2023-02-12T18:23:32.547Z,20.83
2023-02-12T18:25:59.032Z,18.87
2023-02-12T18:28:25.493Z,19.30
2023-02-12T18:30:57.504Z,20.60
2023-02-12T18:33:24.596Z,18.57
2023-02-12T18:36:03.027Z,18.00
2023-02-12T18:38:30.295Z,16.17
2023-02-12T18:40:57.197Z,16.67
2023-02-12T18:43:24.884Z,16.10
2023-02-12T18:45:51.657Z,19.33
2023-02-12T18:48:18.351Z,20.27
2023-02-12T18:50:44.799Z,19.37
2023-02-12T18:53:11.386Z,19.87
2023-02-12T18:55:39.352Z,17.40
2023-02-12T18:58:05.922Z,19.67
2023-02-12T19:00:32.432Z,16.60
2023-02-12T19:02:58.855Z,18.33
2023-02-12T19:05:26.582Z,17.67
2023-02-12T19:07:53.638Z,16.00
2023-02-12T19:10:20.259Z,22.57
2023-02-12T19:12:46.926Z,27.93
2023-02-12T19:15:13.576Z,30.90
2023-02-12T19:17:40.104Z,20.37
2023-02-12T19:20:07.570Z,18.57
2023-02-12T19:22:35.223Z,19.80
2023-02-12T19:25:03.249Z,19.80
2023-02-12T19:27:31.427Z,55.90
2023-02-12T19:30:00.287Z,42.77
2023-02-12T19:32:26.818Z,25.63
2023-02-12T19:34:53.993Z,36.40
2023-02-12T19:37:21.287Z,32.50
2023-02-12T19:39:47.715Z,37.20
2023-02-12T19:42:16.674Z,35.00
2023-02-12T19:44:44.508Z,38.73
2023-02-12T19:47:10.998Z,39.97
2023-02-12T19:49:38.117Z,42.67
2023-02-12T19:52:05.285Z,39.50
2023-02-12T19:54:31.737Z,37.27
2023-02-12T19:56:58.305Z,40.97
2023-02-12T19:59:27.707Z,37.23
2023-02-12T20:01:54.769Z,39.73
2023-02-12T20:04:25.059Z,49.50
2023-02-12T20:06:52.650Z,48.67
2023-02-12T20:09:21.142Z,51.03
2023-02-12T20:11:48.334Z,57.70
2023-02-12T20:14:15.238Z,42.17
2023-02-12T20:16:44.579Z,44.67
2023-02-12T20:19:15.505Z,40.47
2023-02-12T20:21:43.378Z,36.90
2023-02-12T20:24:10.017Z,36.57
2023-02-12T20:26:37.963Z,41.07
2023-02-12T20:29:05.394Z,40.17
2023-02-12T20:31:34.442Z,39.47
2023-02-12T20:34:04.673Z,38.47
2023-02-12T20:36:36.861Z,37.23
2023-02-12T20:39:05.790Z,40.17
2023-02-12T20:41:32.928Z,40.47
2023-02-12T20:44:00.622Z,38.30
2023-02-12T20:46:27.589Z,39.93
2023-02-12T20:48:55.053Z,40.90
2023-02-12T20:51:26.402Z,41.93
2023-02-12T20:53:55.563Z,42.23
2023-02-12T20:56:27.177Z,40.50
2023-02-12T20:58:54.255Z,41.50
2023-02-12T21:01:42.459Z,41.70
2023-02-12T21:04:15.048Z,44.53
2023-02-12T21:06:42.235Z,44.30
2023-02-12T21:09:11.075Z,42.90
2023-02-12T21:11:39.811Z,45.53
2023-02-12T21:14:23.961Z,42.77
2023-02-12T21:16:55.001Z,40.47
2023-02-12T21:19:22.224Z,41.50
2023-02-12T21:21:48.989Z,40.13
2023-02-12T21:24:21.592Z,40.00
2023-02-12T21:26:48.703Z,42.23
2023-02-12T21:29:15.104Z,41.33
2023-02-12T21:31:44.726Z,39.70
2023-02-12T21:34:14.426Z,38.07
2023-02-12T21:36:42.960Z,38.50
2023-02-12T21:39:12.932Z,42.23
2023-02-12T21:41:41.432Z,41.00
2023-02-12T21:44:14.535Z,40.30
2023-02-12T21:46:41.846Z,39.27
2023-02-12T21:49:08.417Z,39.33
2023-02-12T21:51:38.265Z,39.67
2023-02-12T21:54:15.882Z,42.23
2023-02-12T21:56:44.480Z,41.03
2023-02-12T21:59:11.288Z,39.60
2023-02-12T22:01:42.425Z,37.53
2023-02-12T22:04:10.079Z,41.40
2023-02-12T22:06:38.688Z,40.17
2023-02-12T22:09:07.905Z,35.50
2023-02-12T22:11:36.313Z,34.20
2023-02-12T22:14:04.324Z,37.67
2023-02-12T22:16:31.191Z,29.67
2023-02-12T22:19:00.094Z,45.50
2023-02-12T22:21:28.550Z,45.53
2023-02-12T22:23:56.722Z,45.00
2023-02-12T22:26:26.985Z,36.23
2023-02-12T22:28:56.161Z,37.37
2023-02-12T22:31:29.241Z,38.93
2023-02-12T22:33:59.035Z,39.43
2023-02-12T22:36:26.805Z,47.13
2023-02-12T22:38:55.487Z,39.17
2023-02-12T22:41:23.141Z,42.43
2023-02-12T22:43:51.241Z,57.20
2023-02-12T22:46:17.875Z,127.30
2023-02-12T22:48:45.516Z,42.17
2023-02-12T22:51:22.621Z,39.90
2023-02-12T22:53:49.537Z,41.40
2023-02-12T22:56:16.565Z,36.80
2023-02-12T22:58:43.934Z,37.30
2023-02-12T23:01:14.124Z,41.70
2023-02-12T23:03:41.603Z,36.13
2023-02-12T23:06:11.932Z,38.83
2023-02-12T23:08:38.559Z,32.60
2023-02-12T23:11:07.921Z,33.03
2023-02-12T23:13:36.142Z,34.60
2023-02-12T23:16:03.167Z,36.93
2023-02-12T23:18:29.940Z,33.43
2023-02-12T23:20:56.641Z,31.13
2023-02-12T23:23:23.385Z,33.53
2023-02-12T23:25:50.200Z,35.10
2023-02-12T23:28:17.272Z,33.10
2023-02-12T23:30:43.807Z,37.50
2023-02-12T23:33:10.714Z,35.03
2023-02-12T23:35:37.138Z,30.13
2023-02-12T23:38:04.413Z,27.93
2023-02-12T23:40:32.610Z,29.10
2023-02-12T23:42:59.979Z,34.83
2023-02-12T23:45:27.143Z,36.13
2023-02-12T23:47:53.735Z,40.97
2023-02-12T23:50:21.504Z,37.53
2023-02-12T23:52:48.226Z,38.10
2023-02-12T23:55:14.842Z,40.73
2023-02-12T23:57:41.363Z,37.57
